Time;durP1;ratioP1;P1;durP2;ratioP2;P2;SDS_P1;SDS_P2;PMS_P1;PMS_P2;Temp;Humidity;BMP_temperature;BMP_pressure;BME280_temperature;BME280_humidity;BME280_pressure;Samples;Min_cycle;Max_cycle;Signal;HPM_P1;HPM_P2
2022/08/05 00:01:13;;;;;;;6.30;3.30;;;22.90;70.50;;;25.60;51.28;101465.50;4996146;28;20203;-63
2022/08/05 00:03:58;;;;;;;3.97;3.03;;;22.90;70.10;;;25.62;51.63;101469.56;4996440;28;20192;-62
2022/08/05 00:06:27;;;;;;;3.47;3.00;;;22.90;70.80;;;25.69;51.56;101461.25;4996624;28;20184;-63
2022/08/05 00:09:18;;;;;;;5.40;2.90;;;22.90;71.20;;;25.76;50.70;101453.75;4993122;28;20206;-61
2022/08/05 00:12:05;;;;;;;4.80;2.60;;;23.00;70.00;;;25.76;50.76;101451.06;4996802;28;20235;-62
2022/08/05 00:14:48;;;;;;;5.10;3.10;;;23.00;69.40;;;25.76;50.32;101448.34;5001075;28;20200;-64
2022/08/05 00:17:36;;;;;;;3.73;2.77;;;23.00;68.90;;;25.75;49.84;101441.31;5011128;28;20276;-64
2022/08/05 00:20:26;;;;;;;4.20;2.77;;;23.00;68.80;;;25.75;50.41;101422.44;5011327;28;20724;-63
2022/08/05 00:23:06;;;;;;;5.27;3.60;;;23.00;69.20;;;25.77;50.63;101417.63;5001968;28;20303;-63
2022/08/05 00:25:39;;;;;;;7.63;3.07;;;23.10;69.90;;;25.83;50.48;101408.50;4996198;28;20211;-62
2022/08/05 00:28:31;;;;;;;4.07;3.00;;;23.10;69.70;;;25.85;50.34;101409.03;4996244;28;20210;-62
2022/08/05 00:31:11;;;;;;;4.53;3.17;;;23.20;69.60;;;25.92;49.99;101398.84;5009594;28;20199;-63
2022/08/05 00:33:45;;;;;;;3.50;2.53;;;23.20;69.30;;;25.98;49.71;101381.63;4995923;28;20192;-63
2022/08/05 00:36:32;;;;;;;3.30;2.70;;;23.20;69.20;;;26.01;49.42;101379.19;4996844;28;20243;-63
2022/08/05 00:39:21;;;;;;;3.77;2.40;;;23.30;68.40;;;26.02;49.21;101388.09;4976412;28;20193;-63
2022/08/05 00:41:51;;;;;;;5.13;2.53;;;23.30;68.10;;;26.02;49.54;101398.91;4976111;28;20214;-63
2022/08/05 00:44:40;;;;;;;3.13;2.50;;;23.30;67.60;;;25.96;49.19;101402.66;4976783;28;20204;-63
2022/08/05 00:47:07;;;;;;;9.90;2.90;;;23.30;67.00;;;25.91;49.24;101394.53;4979381;28;20188;-62
2022/08/05 00:49:38;;;;;;;4.23;2.40;;;23.20;67.00;;;25.87;48.49;101399.59;5004712;28;20714;-62
2022/08/05 00:52:24;;;;;;;3.57;2.67;;;23.20;66.90;;;25.83;48.64;101395.00;5014264;28;20630;-64
2022/08/05 00:54:56;;;;;;;3.93;2.27;;;23.10;66.80;;;25.80;49.20;101363.13;4976529;28;20561;-63
2022/08/05 00:57:24;;;;;;;4.33;2.47;;;23.10;66.90;;;25.77;49.09;101342.09;4981698;28;20615;-63
2022/08/05 01:00:12;;;;;;;4.63;2.70;;;23.00;67.00;;;25.72;49.39;101339.34;4995301;28;20196;-63
2022/08/05 01:02:43;;;;;;;3.50;2.70;;;23.00;67.40;;;25.69;48.89;101364.16;4994011;28;20247;-63
2022/08/05 01:05:11;;;;;;;2.50;2.13;;;23.00;67.50;;;25.69;49.42;101358.75;5010518;28;20192;-61
2022/08/05 01:07:41;;;;;;;5.47;2.60;;;23.00;68.20;;;25.71;49.38;101340.41;4995005;28;20554;-63
2022/08/05 01:10:39;;;;;;;3.60;2.57;;;23.00;68.30;;;25.71;50.04;101370.09;4995092;28;20611;-63
2022/08/05 01:13:27;;;;;;;4.57;2.90;;;23.00;68.50;;;25.66;49.84;101378.13;4994632;28;20238;-62
2022/08/05 01:16:25;;;;;;;4.43;2.73;;;23.00;68.40;;;25.58;49.56;101359.75;4995306;28;20216;-63
2022/08/05 01:19:02;;;;;;;3.10;2.37;;;23.00;68.40;;;25.55;49.41;101340.28;5007989;28;20580;-63
2022/08/05 01:22:05;;;;;;;3.97;2.53;;;22.90;68.40;;;25.48;50.87;101285.78;4995015;28;20211;-63
2022/08/05 01:25:00;;;;;;;3.23;2.50;;;22.90;69.70;;;25.51;51.05;101225.13;4995264;28;20262;-63
2022/08/05 01:28:14;;;;;;;5.40;2.83;;;22.90;70.30;;;25.46;51.66;101211.59;4995156;28;20234;-63
2022/08/05 01:30:51;;;;;;;4.00;2.70;;;22.90;70.90;;;25.47;51.11;101211.38;4992690;28;20203;-62
2022/08/05 01:33:28;;;;;;;5.63;2.43;;;22.80;70.80;;;25.41;52.01;101236.63;4995637;28;20215;-62
2022/08/05 01:36:12;;;;;;;5.53;2.80;;;22.80;71.50;;;25.33;51.66;101261.41;4995881;28;20270;-62
2022/08/05 01:38:46;;;;;;;4.80;2.70;;;22.70;71.20;;;25.29;52.30;101291.81;5004774;28;20246;-63
2022/08/05 01:41:21;;;;;;;4.53;2.50;;;22.60;71.30;;;25.28;52.09;101290.19;4995132;28;20192;-63
2022/08/05 01:43:55;;;;;;;4.43;3.00;;;22.60;72.00;;;25.32;52.04;101296.69;4995247;28;20214;-63
2022/08/05 01:46:26;;;;;;;4.07;2.87;;;22.70;71.90;;;25.31;52.11;101300.47;4995251;28;20271;-63
2022/08/05 01:49:19;;;;;;;4.60;2.80;;;22.60;71.50;;;25.23;52.32;101320.63;4995923;28;20274;-63
2022/08/05 01:51:57;;;;;;;4.37;2.73;;;22.60;71.90;;;25.24;51.87;101322.25;4993967;28;20267;-63
2022/08/05 01:54:34;;;;;;;5.97;2.77;;;22.60;71.90;;;25.24;52.15;101324.94;4995008;28;20530;-63
2022/08/05 01:57:18;;;;;;;2.80;2.53;;;22.60;72.30;;;25.26;52.43;101330.91;4994663;28;20672;-63
2022/08/05 02:00:10;;;;;;;8.80;3.20;;;22.60;72.70;;;25.21;52.59;101336.22;4994352;28;20250;-63
2022/08/05 02:02:48;;;;;;;4.30;2.77;;;22.60;72.00;;;25.20;52.81;101331.13;4994604;28;20605;-63
2022/08/05 02:05:27;;;;;;;4.83;3.30;;;22.50;72.30;;;25.21;52.71;101338.94;4994806;28;20199;-64
2022/08/05 02:07:55;;;;;;;6.87;3.30;;;22.50;72.10;;;25.18;51.92;101344.81;4994414;28;20220;-64
2022/08/05 02:10:35;;;;;;;6.30;3.47;;;22.50;71.90;;;25.08;52.40;101358.19;4996303;28;20192;-62
2022/08/05 02:13:16;;;;;;;4.10;2.57;;;22.40;71.60;;;24.94;52.51;101370.44;4994480;28;20306;-62
2022/08/05 02:15:52;;;;;;;6.50;2.90;;;22.40;72.10;;;24.85;52.79;101361.22;4994406;28;20192;-63
2022/08/05 02:18:29;;;;;;;5.80;2.87;;;22.30;72.10;;;24.77;52.91;101364.38;4994463;28;20200;-60
2022/08/05 02:21:08;;;;;;;4.80;2.73;;;22.20;72.70;;;24.69;52.89;101367.47;4994286;28;20188;-62
2022/08/05 02:23:46;;;;;;;7.97;3.73;;;22.10;73.00;;;24.64;53.67;101380.88;4994446;28;20206;-62
2022/08/05 02:26:23;;;;;;;6.20;3.07;;;22.00;73.70;;;24.59;53.90;101381.63;4994082;28;20590;-61
2022/08/05 02:28:55;;;;;;;3.60;2.97;;;22.00;73.80;;;24.57;53.54;101374.84;4994503;28;20526;-62
2022/08/05 02:31:31;;;;;;;5.63;3.40;;;21.90;73.70;;;24.49;53.93;101373.41;4994035;28;20522;-63
2022/08/05 02:34:07;;;;;;;4.63;2.70;;;21.90;74.10;;;24.47;53.58;101380.13;4994576;28;20199;-63
2022/08/05 02:36:41;;;;;;;4.77;2.50;;;21.80;74.30;;;24.44;54.45;101370.66;4994334;28;20222;-63
2022/08/05 02:39:11;;;;;;;6.30;2.87;;;21.80;75.50;;;24.44;54.30;101367.19;5006591;28;20217;-63
2022/08/05 02:41:41;;;;;;;4.67;2.93;;;21.80;74.50;;;24.43;54.40;101368.22;4994175;28;20211;-63
2022/08/05 02:44:31;;;;;;;4.43;3.33;;;21.70;74.60;;;24.40;54.56;101357.94;4994485;28;20220;-63
2022/08/05 02:47:01;;;;;;;7.60;3.30;;;21.70;74.80;;;24.37;54.69;101364.66;4994185;28;20199;-63
2022/08/05 02:49:35;;;;;;;6.33;3.30;;;21.70;74.80;;;24.36;54.82;101348.75;5001302;28;20245;-63
2022/08/05 02:52:14;;;;;;;3.37;2.77;;;21.70;74.90;;;24.33;54.51;101350.06;4996623;28;20218;-63
2022/08/05 02:54:59;;;;;;;6.70;3.27;;;21.70;74.90;;;24.31;54.24;101354.06;4976525;28;20200;-63
2022/08/05 02:57:32;;;;;;;7.50;3.60;;;21.70;74.90;;;24.28;54.62;101343.81;4978346;28;20262;-63
2022/08/05 03:00:20;;;;;;;6.03;4.13;;;21.60;74.80;;;24.23;54.68;101337.31;4994071;28;20196;-63
2022/08/05 03:02:51;;;;;;;5.87;3.73;;;21.60;75.20;;;24.22;55.15;101342.94;4994128;28;20222;-63
2022/08/05 03:05:20;;;;;;;4.47;4.07;;;21.60;75.30;;;24.20;54.69;101348.56;4993046;28;20653;-63
2022/08/05 03:08:09;;;;;;;5.80;4.43;;;21.60;75.40;;;24.17;55.47;101350.94;4993509;28;20215;-63
2022/08/05 03:10:40;;;;;;;5.43;4.23;;;21.50;75.80;;;24.18;55.24;101348.00;4994101;28;20192;-63
2022/08/05 03:13:27;;;;;;;6.47;3.83;;;21.50;76.00;;;24.19;55.39;101346.13;4993612;28;20247;-62
2022/08/05 03:16:15;;;;;;;5.07;3.93;;;21.50;76.10;;;24.19;55.22;101355.00;4993867;28;20203;-62
2022/08/05 03:18:47;;;;;;;5.40;4.50;;;21.50;76.20;;;24.21;54.77;101366.34;4993641;28;20203;-64
2022/08/05 03:21:15;;;;;;;6.97;4.43;;;21.50;76.20;;;24.20;55.15;101364.69;4992036;28;20223;-63
2022/08/05 03:23:43;;;;;;;4.37;3.80;;;21.40;76.20;;;24.19;55.08;101363.09;4993675;28;20529;-64
2022/08/05 03:26:12;;;;;;;6.67;4.77;;;21.50;76.40;;;24.19;54.96;101354.19;4993824;28;20196;-62
2022/08/05 03:28:58;;;;;;;8.43;4.53;;;21.40;76.40;;;24.18;55.80;101350.69;4993521;28;20261;-61
2022/08/05 03:31:26;;;;;;;4.73;3.60;;;21.40;76.70;;;24.19;55.57;101349.63;4993359;28;20216;-64
2022/08/05 03:34:15;;;;;;;9.57;4.17;;;21.40;77.00;;;24.24;55.44;101348.88;4993644;28;20188;-64
2022/08/05 03:36:43;;;;;;;4.53;4.03;;;21.50;76.90;;;24.28;55.48;101347.31;4993747;28;20243;-64
2022/08/05 03:39:10;;;;;;;8.43;4.50;;;21.50;77.10;;;24.32;55.18;101344.94;4996852;28;20202;-63
2022/08/05 03:41:46;;;;;;;5.20;4.30;;;21.50;76.90;;;24.31;55.46;101344.13;4996735;28;20242;-62
2022/08/05 03:44:18;;;;;;;5.93;3.87;;;21.50;76.80;;;24.29;55.60;101335.50;4979957;28;20262;-63
2022/08/05 03:46:46;;;;;;;11.00;4.63;;;21.50;76.90;;;24.30;55.43;101353.25;4997193;28;20208;-64
2022/08/05 03:49:16;;;;;;;9.13;4.67;;;21.50;76.90;;;24.29;55.44;101358.91;5002133;28;20191;-63
2022/08/05 03:51:55;;;;;;;6.53;4.00;;;21.50;76.70;;;24.28;55.45;101359.94;5015949;28;20215;-63
2022/08/05 03:54:51;;;;;;;4.90;4.43;;;21.50;76.90;;;24.25;55.70;101353.19;4995763;28;20634;-63
2022/08/05 03:57:43;;;;;;;6.93;5.07;;;21.50;76.70;;;24.27;55.66;101355.66;4996923;28;20212;-64
2022/08/05 04:00:14;;;;;;;6.03;4.27;;;21.50;76.70;;;24.27;55.23;101366.41;4996743;28;20192;-63
2022/08/05 04:02:48;;;;;;;8.03;4.47;;;21.50;76.80;;;24.25;55.28;101376.63;4996476;28;20223;-63
2022/08/05 04:05:31;;;;;;;7.07;4.87;;;21.50;76.70;;;24.22;55.19;101372.53;4996582;28;20210;-63
2022/08/05 04:08:03;;;;;;;9.00;5.20;;;21.50;76.90;;;24.20;55.22;101377.34;4995966;28;20203;-63
2022/08/05 04:10:43;;;;;;;7.13;4.97;;;21.50;76.90;;;24.18;55.51;101380.28;4996144;28;20250;-63
2022/08/05 04:13:11;;;;;;;7.27;4.90;;;21.50;77.20;;;24.19;55.99;101384.63;4996280;28;20219;-63
2022/08/05 04:15:39;;;;;;;7.20;4.90;;;21.40;77.30;;;24.19;55.96;101392.69;4996584;28;20531;-63
2022/08/05 04:18:27;;;;;;;7.20;5.00;;;21.40;77.20;;;24.19;55.70;101389.19;4996195;28;20212;-63
2022/08/05 04:20:57;;;;;;;7.87;5.17;;;21.40;77.30;;;24.20;55.63;101396.16;4995600;28;20688;-63
2022/08/05 04:23:28;;;;;;;5.23;3.80;;;21.40;77.30;;;24.20;55.93;101399.69;4996264;28;20199;-63
2022/08/05 04:26:15;;;;;;;8.90;4.50;;;21.40;77.70;;;24.25;55.83;101401.63;4995989;28;20196;-62
2022/08/05 04:28:43;;;;;;;8.80;5.47;;;21.40;77.60;;;24.33;55.90;101403.09;4996390;28;20222;-62
2022/08/05 04:31:18;;;;;;;6.83;4.90;;;21.50;77.80;;;24.36;55.68;101414.19;4994892;28;20960;-62
2022/08/05 04:33:45;;;;;;;6.23;4.77;;;21.50;77.40;;;24.38;55.42;101411.22;5000114;28;20203;-64
2022/08/05 04:36:34;;;;;;;7.10;4.63;;;21.60;77.10;;;24.35;55.68;101417.91;5010664;28;20171;-63
2022/08/05 04:39:16;;;;;;;11.77;5.57;;;21.60;76.80;;;24.36;55.94;101406.09;5020543;28;20230;-64
2022/08/05 04:41:44;;;;;;;6.83;4.67;;;21.60;78.00;;;24.44;55.45;101396.78;5017630;28;20242;-63
2022/08/05 04:44:14;;;;;;;7.00;4.57;;;21.60;77.20;;;24.51;55.24;101398.22;4998484;28;20203;-64
2022/08/05 04:46:50;;;;;;;5.43;4.40;;;21.70;76.90;;;24.56;55.25;101395.59;5015760;28;20203;-63
2022/08/05 04:49:19;;;;;;;7.33;4.87;;;21.70;76.70;;;24.58;55.37;101387.28;5004312;28;20193;-64
2022/08/05 04:52:06;;;;;;;8.80;5.17;;;21.80;76.60;;;24.59;54.76;101384.31;5015037;28;20575;-63
2022/08/05 04:54:34;;;;;;;5.67;4.50;;;21.80;76.60;;;24.62;54.94;101378.44;4995001;28;20736;-62
2022/08/05 04:57:01;;;;;;;5.80;5.03;;;21.80;76.50;;;24.62;55.19;101383.00;5011028;28;20539;-63
2022/08/05 04:59:29;;;;;;;5.60;4.87;;;21.80;76.40;;;24.63;54.57;101373.84;4995706;28;20207;-64
2022/08/05 05:02:07;;;;;;;8.83;5.40;;;21.80;76.40;;;24.65;55.23;101377.13;4995742;28;20677;-62
2022/08/05 05:04:55;;;;;;;6.27;4.87;;;21.80;76.30;;;24.65;55.08;101369.84;4995899;28;20267;-63
2022/08/05 05:07:30;;;;;;;6.53;4.63;;;21.90;76.20;;;24.69;55.11;101389.00;4994948;28;20188;-62
2022/08/05 05:10:05;;;;;;;8.50;4.80;;;21.90;76.40;;;24.72;55.00;101401.97;4995394;28;20254;-62
2022/08/05 05:12:32;;;;;;;6.00;4.17;;;21.90;76.10;;;24.72;54.40;101420.84;4994249;28;20226;-64
2022/08/05 05:15:05;;;;;;;8.13;4.73;;;21.90;75.80;;;24.69;54.39;101427.53;4995341;28;20203;-64
2022/08/05 05:17:39;;;;;;;6.27;4.73;;;21.90;75.70;;;24.67;54.26;101418.06;4993672;28;20243;-62
2022/08/05 05:20:23;;;;;;;6.33;4.57;;;21.90;75.80;;;24.65;54.65;101420.22;4995182;28;20194;-64
2022/08/05 05:22:57;;;;;;;4.67;4.07;;;21.90;75.70;;;24.62;54.78;101428.78;4978259;28;20211;-65
2022/08/05 05:25:26;;;;;;;5.60;4.17;;;21.90;75.80;;;24.65;54.91;101425.59;4995700;28;20192;-63
2022/08/05 05:28:07;;;;;;;5.73;4.43;;;21.80;76.00;;;24.63;54.62;101422.31;4995242;28;20684;-65
2022/08/05 05:30:35;;;;;;;8.53;5.63;;;21.80;76.00;;;24.65;54.50;101423.69;4995304;28;20196;-63
2022/08/05 05:33:06;;;;;;;6.87;4.13;;;21.80;76.10;;;24.67;55.06;101412.69;4995210;28;20215;-64
2022/08/05 05:35:44;;;;;;;5.10;3.97;;;21.80;76.50;;;24.73;55.23;101395.50;5011828;28;20241;-64
2022/08/05 05:38:14;;;;;;;8.30;4.70;;;21.80;76.60;;;24.82;54.86;101375.16;5007799;28;20233;-64
2022/08/05 05:40:54;;;;;;;7.63;5.13;;;21.90;76.60;;;24.94;54.72;101359.69;4992832;28;20203;-62
2022/08/05 05:43:22;;;;;;;5.30;4.80;;;22.00;76.70;;;25.06;54.60;101363.03;4993252;28;20254;-63
2022/08/05 05:46:10;;;;;;;8.27;5.17;;;22.10;76.70;;;25.20;54.53;101380.41;4994788;28;20202;-63
2022/08/05 05:48:44;;;;;;;7.47;5.40;;;22.20;76.70;;;25.33;53.86;101395.38;4995867;28;20188;-63
2022/08/05 05:51:19;;;;;;;8.07;6.03;;;22.30;76.20;;;25.34;53.98;101419.38;5013259;28;20196;-63
2022/08/05 05:53:51;;;;;;;9.27;6.20;;;22.30;75.70;;;25.32;53.62;101426.91;5002181;28;20195;-63
2022/08/05 05:56:28;;;;;;;10.97;6.63;;;22.40;75.60;;;25.29;54.03;101418.53;4994635;28;20637;-63
2022/08/05 05:59:00;;;;;;;8.83;5.57;;;22.40;75.30;;;25.22;53.55;101407.91;4994486;28;20274;-62
2022/08/05 06:01:30;;;;;;;16.37;10.23;;;22.40;75.30;;;25.20;53.74;101401.97;4993478;28;20303;-64
2022/08/05 06:04:06;;;;;;;6.70;4.40;;;22.40;75.60;;;25.24;54.52;101386.94;4997155;28;20202;-62
2022/08/05 06:06:34;;;;;;;8.40;5.30;;;22.40;75.70;;;25.29;54.26;101397.75;4995843;28;20195;-62
2022/08/05 06:09:04;;;;;;;7.17;5.10;;;22.50;75.10;;;25.28;53.39;101401.53;4995010;28;20196;-61
2022/08/05 06:11:34;;;;;;;6.23;5.63;;;22.50;74.60;;;25.27;53.80;101407.19;4995653;28;20214;-60
2022/08/05 06:14:05;;;;;;;5.23;4.73;;;22.50;74.60;;;25.27;53.69;101415.28;4995389;28;20200;-64
2022/08/05 06:16:33;;;;;;;6.40;4.57;;;22.50;74.40;;;25.23;52.97;101417.66;4995215;28;20200;-62
2022/08/05 06:19:04;;;;;;;5.73;5.00;;;22.50;74.30;;;25.20;53.49;101407.38;4995239;28;20220;-64
2022/08/05 06:21:35;;;;;;;5.83;5.10;;;22.40;74.20;;;25.18;53.68;101408.69;4995119;28;20212;-62
2022/08/05 06:24:09;;;;;;;9.40;4.70;;;22.40;74.30;;;25.16;53.46;101411.66;4994190;28;20267;-64
2022/08/05 06:26:41;;;;;;;6.27;4.10;;;22.40;74.20;;;25.15;53.74;101417.31;4993002;28;20279;-63
2022/08/05 06:29:19;;;;;;;5.53;4.63;;;22.40;74.60;;;25.19;53.61;101410.31;4993618;28;20227;-63
2022/08/05 06:32:07;;;;;;;10.47;7.13;;;22.40;74.80;;;25.21;54.04;101417.09;4992749;28;20323;-64
2022/08/05 06:34:52;;;;;;;6.60;5.47;;;22.40;75.10;;;25.28;53.70;101436.56;4993734;28;20641;-64
2022/08/05 06:37:25;;;;;;;9.43;5.70;;;22.50;75.10;;;25.31;53.50;101443.34;4994136;28;20222;-63
2022/08/05 06:40:14;;;;;;;6.83;5.20;;;22.50;75.00;;;25.27;54.11;101456.50;4974573;28;20264;-63
2022/08/05 06:42:49;;;;;;;8.37;6.60;;;22.50;75.10;;;25.24;53.61;101438.16;4974542;28;20226;-63
2022/08/05 06:45:20;;;;;;;7.07;5.37;;;22.50;75.50;;;25.22;54.61;101426.78;4974534;28;20184;-64
2022/08/05 06:48:08;;;;;;;11.13;8.73;;;22.50;75.70;;;25.21;54.14;101419.78;4978019;28;20199;-64
2022/08/05 06:50:56;;;;;;;9.80;6.33;;;22.50;75.90;;;25.25;54.66;101426.28;4995355;28;20222;-65
2022/08/05 06:53:23;;;;;;;15.03;9.20;;;22.50;76.10;;;25.28;54.61;101430.34;5003813;28;20207;-62
2022/08/05 06:55:57;;;;;;;7.80;4.90;;;22.50;76.60;;;25.31;54.41;101425.28;4977636;28;20673;-64
2022/08/05 06:58:26;;;;;;;5.93;4.40;;;22.50;76.20;;;25.33;54.17;101430.41;4993479;28;20246;-63
2022/08/05 07:01:05;;;;;;;8.33;5.50;;;22.50;76.00;;;25.38;54.72;101435.84;4993261;28;20195;-63
2022/08/05 07:03:33;;;;;;;7.40;6.77;;;22.60;76.10;;;25.40;54.00;101442.63;4993841;28;20204;-64
2022/08/05 07:06:03;;;;;;;8.53;5.63;;;22.60;75.80;;;25.37;54.24;101440.44;4993885;28;20200;-61
2022/08/05 07:08:41;;;;;;;9.33;6.50;;;22.60;75.90;;;25.38;53.75;101450.16;4993266;28;20246;-63
2022/08/05 07:11:11;;;;;;;7.03;6.33;;;22.60;76.40;;;25.37;53.76;101459.31;4992202;28;20200;-62
2022/08/05 07:19:35;;;;;;;8.23;7.03;;;22.50;75.50;;;25.24;54.05;101473.19;4997100;28;20223;-63
2022/08/05 07:22:23;;;;;;;8.20;6.17;;;22.50;75.50;;;25.19;54.23;101475.84;4997223;28;20204;-64
2022/08/05 07:24:58;;;;;;;7.37;4.93;;;22.50;75.50;;;25.18;54.27;101468.81;4980326;28;20227;-63
2022/08/05 07:27:27;;;;;;;12.37;9.57;;;22.40;75.50;;;25.17;54.64;101467.19;4997287;28;20234;-63
2022/08/05 07:30:14;;;;;;;6.63;5.60;;;22.40;76.00;;;25.20;54.84;101466.66;4997098;28;20195;-64
2022/08/05 07:32:54;;;;;;;6.13;4.63;;;22.40;76.40;;;25.21;53.97;101489.88;4996923;28;20234;-64
2022/08/05 07:35:24;;;;;;;4.37;3.97;;;22.40;75.70;;;25.21;54.62;101484.47;4979630;28;20294;-62
2022/08/05 07:38:12;;;;;;;7.30;4.90;;;22.40;76.20;;;25.22;54.52;101475.31;4996421;28;20216;-62
2022/08/05 07:40:59;;;;;;;6.27;4.77;;;22.40;75.80;;;25.22;54.20;101477.22;4996300;28;20192;-64
2022/08/05 07:43:49;;;;;;;7.40;6.70;;;22.40;76.10;;;25.19;54.27;101481.22;4997748;28;20238;-63
2022/08/05 07:46:17;;;;;;;5.37;4.87;;;22.40;76.30;;;25.17;54.21;101483.38;4996678;28;20199;-64
2022/08/05 07:48:53;;;;;;;7.73;5.80;;;22.40;76.10;;;25.14;54.84;101472.25;4997335;28;20192;-63
2022/08/05 07:51:33;;;;;;;9.33;6.00;;;22.30;76.30;;;25.16;55.21;101479.03;4995927;28;20230;-63
2022/08/05 07:54:08;;;;;;;5.93;4.97;;;22.30;77.00;;;25.18;54.67;101468.81;4984023;28;20207;-63
2022/08/05 07:56:38;;;;;;;5.87;5.37;;;22.30;76.60;;;25.17;54.56;101461.81;4996821;28;20195;-63
2022/08/05 07:59:27;;;;;;;6.40;4.30;;;22.30;77.40;;;25.16;54.65;101462.84;4995729;28;20211;-64
2022/08/05 08:02:08;;;;;;;5.67;4.47;;;22.30;77.10;;;25.17;55.43;101461.81;4996247;28;20290;-63
2022/08/05 08:04:45;;;;;;;7.43;4.47;;;22.30;77.50;;;25.22;55.57;101467.22;4996777;28;20222;-63
2022/08/05 08:07:14;;;;;;;5.60;5.07;;;22.30;77.50;;;25.26;55.49;101476.44;4996255;28;20199;-63
2022/08/05 08:09:42;;;;;;;7.17;4.57;;;22.40;77.40;;;25.26;54.97;101481.84;4996179;28;20286;-63
2022/08/05 08:12:12;;;;;;;6.33;4.73;;;22.40;77.40;;;25.27;54.99;101480.75;4996137;28;20720;-63
2022/08/05 08:15:06;;;;;;;7.50;4.93;;;22.40;77.40;;;25.23;55.23;101481.53;4996361;28;20198;-62
2022/08/05 08:17:40;;;;;;;6.27;5.20;;;22.40;77.50;;;25.22;54.97;101480.69;4996386;28;20206;-63
2022/08/05 08:20:17;;;;;;;7.30;4.67;;;22.40;77.40;;;25.21;54.98;101480.97;4996189;28;20196;-61
2022/08/05 08:23:06;;;;;;;5.90;4.53;;;22.40;77.50;;;25.16;55.15;101462.84;4996196;28;20226;-63
2022/08/05 08:25:53;;;;;;;4.73;4.23;;;22.40;78.20;;;25.12;55.53;101464.44;4996030;28;20196;-63
2022/08/05 08:28:27;;;;;;;8.47;5.00;;;22.30;77.80;;;25.12;55.75;101472.53;4995775;28;20219;-63
2022/08/05 08:31:09;;;;;;;7.07;5.80;;;22.30;78.90;;;25.13;56.35;101467.91;4995721;28;20207;-63
2022/08/05 08:33:44;;;;;;;7.13;6.10;;;22.30;78.40;;;25.15;55.74;101472.00;4995477;28;20195;-63
2022/08/05 08:36:20;;;;;;;10.97;9.17;;;22.30;78.30;;;25.14;56.52;101478.47;4995409;28;20197;-63
2022/08/05 08:39:07;;;;;;;9.33;7.00;;;22.30;78.60;;;25.13;56.00;101481.41;4995411;28;20282;-63
2022/08/05 08:41:46;;;;;;;7.57;5.50;;;22.30;78.70;;;25.10;56.24;101482.75;4994807;28;20219;-63
2022/08/05 08:44:31;;;;;;;8.63;6.40;;;22.30;78.70;;;25.08;56.74;101492.94;5006146;28;20199;-63
2022/08/05 08:47:23;;;;;;;9.10;6.93;;;22.30;80.00;;;25.09;56.58;101501.84;4995418;28;20211;-62
2022/08/05 08:50:17;;;;;;;7.70;7.03;;;22.30;79.20;;;25.12;56.39;101499.47;5008586;28;20191;-62
2022/08/05 08:53:10;;;;;;;7.07;6.30;;;22.30;79.50;;;25.19;56.81;101504.66;5008738;28;20227;-62
2022/08/05 08:55:40;;;;;;;7.67;6.90;;;22.40;79.20;;;25.22;56.60;101496.88;4995258;28;20506;-62
2022/08/05 08:58:28;;;;;;;8.97;6.93;;;22.40;79.10;;;25.22;56.96;101502.25;4995040;28;20208;-63
2022/08/05 09:01:17;;;;;;;7.37;6.40;;;22.40;79.60;;;25.22;56.61;101507.66;4993643;28;20254;-63
2022/08/05 09:03:50;;;;;;;7.10;6.00;;;22.40;79.90;;;25.20;56.99;101506.31;4993940;28;20200;-62
2022/08/05 09:06:29;;;;;;;7.83;5.70;;;22.40;79.30;;;25.13;56.71;101501.09;4995064;28;20235;-62
2022/08/05 09:09:03;;;;;;;6.63;6.03;;;22.40;79.00;;;25.08;56.73;101506.41;4994292;28;20274;-63
2022/08/05 09:11:36;;;;;;;7.80;5.80;;;22.40;79.20;;;25.03;56.29;101509.03;4994703;28;20216;-62
2022/08/05 09:14:21;;;;;;;5.23;4.80;;;22.30;78.80;;;24.97;56.98;101504.66;4994371;28;20196;-62
2022/08/05 09:17:14;;;;;;;5.47;4.87;;;22.30;79.60;;;24.95;57.26;101506.81;4994312;28;20192;-65
2022/08/05 09:20:06;;;;;;;5.10;4.60;;;22.30;79.70;;;25.04;57.09;101499.91;4991396;28;20216;-64
2022/08/05 09:23:07;;;;;;;5.80;4.73;;;22.30;80.40;;;25.07;57.09;101494.03;4974782;28;20296;-64
2022/08/05 09:25:38;;;;;;;8.03;7.33;;;22.30;79.30;;;25.15;55.49;101500.84;4974882;28;20195;-62
2022/08/05 09:28:27;;;;;;;6.83;6.20;;;22.30;77.40;;;25.13;55.46;101498.38;4977428;28;20214;-63
2022/08/05 09:31:03;;;;;;;5.37;4.97;;;22.30;77.00;;;25.16;55.23;101497.06;4992159;28;20191;-65
2022/08/05 09:33:53;;;;;;;6.87;6.20;;;22.30;76.80;;;25.18;54.91;101500.31;4994247;28;20282;-62
2022/08/05 09:36:39;;;;;;;6.80;6.20;;;22.30;77.30;;;25.20;54.63;101499.00;4994350;28;20196;-64
2022/08/05 09:39:24;;;;;;;5.87;4.10;;;22.40;76.70;;;25.26;54.54;101503.41;4993632;28;20299;-64
2022/08/05 09:42:14;;;;;;;4.13;3.73;;;22.40;76.20;;;25.26;54.31;101494.50;4993329;28;20224;-64
2022/08/05 09:44:55;;;;;;;3.83;3.43;;;22.40;75.60;;;25.20;54.03;101493.63;4994405;28;20223;-64
2022/08/05 09:47:29;;;;;;;7.47;5.90;;;22.40;75.30;;;25.20;54.15;101490.13;4994094;28;20191;-64
2022/08/05 09:50:19;;;;;;;6.40;5.80;;;22.40;76.30;;;25.25;54.28;101500.94;5007565;28;20194;-62
2022/08/05 09:53:08;;;;;;;7.10;5.60;;;22.40;76.40;;;25.30;54.49;101514.47;5006683;28;20216;-62
2022/08/05 09:55:55;;;;;;;6.27;5.67;;;22.40;76.60;;;25.30;54.49;101520.69;5007073;28;20195;-63
2022/08/05 09:58:35;;;;;;;5.13;4.60;;;22.40;77.10;;;25.32;54.31;101523.94;4993498;28;20694;-63
2022/08/05 10:01:13;;;;;;;6.77;4.63;;;22.40;77.10;;;25.29;55.50;101510.97;4992357;28;20192;-64
2022/08/05 10:04:02;;;;;;;6.97;4.63;;;22.40;77.80;;;25.30;55.07;101509.09;4993382;28;20200;-62
2022/08/05 10:06:30;;;;;;;7.17;6.47;;;22.40;78.00;;;25.34;56.00;101511.03;4993151;28;20250;-64
2022/08/05 10:09:13;;;;;;;5.50;5.00;;;22.50;78.70;;;25.35;55.71;101511.84;4992642;28;20294;-63
2022/08/05 10:12:07;;;;;;;7.17;4.60;;;22.50;78.70;;;25.39;55.58;101516.47;4975800;28;20239;-63
2022/08/05 10:15:14;;;;;;;4.77;4.30;;;22.50;77.90;;;25.33;55.11;101520.19;4993276;28;20195;-64
2022/08/05 10:18:02;;;;;;;5.50;3.70;;;22.50;77.50;;;25.23;53.72;101514.69;4989109;28;20210;-63
2022/08/05 10:20:31;;;;;;;5.87;4.33;;;22.40;75.20;;;25.20;54.18;101515.19;4992859;28;20233;-64
2022/08/05 10:23:01;;;;;;;5.93;4.33;;;22.40;76.20;;;25.19;54.83;101527.03;4993010;28;20247;-64
2022/08/05 10:25:31;;;;;;;3.60;3.30;;;22.30;76.20;;;25.16;54.16;101524.84;4992147;28;20282;-64
2022/08/05 10:28:05;;;;;;;5.80;4.00;;;22.30;75.90;;;25.12;53.97;101517.53;4993249;28;20198;-64
2022/08/05 10:30:46;;;;;;;5.57;3.87;;;22.30;76.20;;;25.13;55.10;101517.25;4988331;28;20644;-63
2022/08/05 10:33:34;;;;;;;6.23;4.40;;;22.30;76.80;;;25.12;55.20;101531.81;4993390;28;20211;-64
2022/08/05 10:36:04;;;;;;;6.50;4.63;;;22.30;77.20;;;25.14;55.55;101536.94;4993324;28;20299;-64
2022/08/05 10:38:36;;;;;;;4.27;3.87;;;22.30;77.80;;;25.18;55.66;101538.88;4992922;28;20208;-63
2022/08/05 10:41:16;;;;;;;4.77;3.53;;;22.30;77.90;;;25.15;55.11;101539.38;4992804;28;20188;-62
2022/08/05 10:43:58;;;;;;;4.00;3.70;;;22.30;77.20;;;25.12;55.33;101534.50;4993302;28;20541;-63
2022/08/05 10:46:46;;;;;;;6.43;4.00;;;22.30;77.30;;;25.13;55.65;101529.91;4994719;28;20199;-62
2022/08/05 10:49:18;;;;;;;8.10;4.50;;;22.30;78.00;;;25.20;55.53;101531.34;4989232;28;20187;-62
2022/08/05 10:52:01;;;;;;;5.07;4.57;;;22.30;78.00;;;25.29;55.40;101547.91;5016026;28;20264;-62
2022/08/05 10:55:02;;;;;;;3.33;3.13;;;22.40;78.50;;;25.28;54.77;101559.75;4998748;28;20677;-64
2022/08/05 10:57:32;;;;;;;4.87;3.50;;;22.40;77.20;;;25.36;54.38;101564.72;4995927;28;20208;-62
2022/08/05 11:00:14;;;;;;;4.57;4.17;;;22.40;77.20;;;25.35;54.70;101566.59;4996593;28;20682;-64
2022/08/05 11:03:13;;;;;;;5.23;3.03;;;22.40;77.20;;;25.35;54.82;101565.78;4993249;28;20220;-63
2022/08/05 11:06:20;;;;;;;9.60;8.77;;;22.40;76.90;;;25.38;54.63;101573.34;4997049;28;20278;-63